Time;durP1;ratioP1;P1;durP2;ratioP2;P2;SDS_P1;SDS_P2;PMS_P1;PMS_P2;Temp;Humidity;BMP_temperature;BMP_pressure;BME280_temperature;BME280_humidity;BME280_pressure;Samples;Min_cycle;Max_cycle;Signal;HPM_P1;HPM_P2
2020/12/31 00:00:14;;;;;;;10.55;3.72;;;;;;;13.03;100.00;100564.88;5115140;28;20038;-74
2020/12/31 00:02:59;;;;;;;16.35;4.18;;;;;;;13.38;100.00;100553.31;5114922;28;20153;-74
2020/12/31 00:05:45;;;;;;;13.77;4.57;;;;;;;13.32;100.00;100551.72;5115653;28;20167;-74
2020/12/31 00:08:31;;;;;;;9.63;3.40;;;;;;;13.25;100.00;100559.81;5114548;28;20027;-74
2020/12/31 00:11:17;;;;;;;15.27;3.65;;;;;;;13.03;100.00;100556.13;5115137;28;20065;-73
2020/12/31 00:14:07;;;;;;;8.93;3.15;;;;;;;13.20;100.00;100556.47;5114741;28;20134;-74
2020/12/31 00:16:53;;;;;;;11.35;3.80;;;;;;;13.02;100.00;100563.16;5115173;28;20102;-73
2020/12/31 00:19:39;;;;;;;10.40;3.40;;;;;;;13.13;100.00;100560.19;5114478;28;20039;-74
2020/12/31 00:22:24;;;;;;;12.02;3.90;;;;;;;12.39;100.00;100559.72;5114843;28;20050;-74
2020/12/31 00:25:11;;;;;;;9.63;3.63;;;;;;;12.92;100.00;100561.69;5115041;28;20131;-73
2020/12/31 00:27:57;;;;;;;16.65;4.35;;;;;;;12.90;100.00;100567.91;5114591;28;20467;-74
2020/12/31 00:30:43;;;;;;;13.10;4.45;;;;;;;12.86;100.00;100564.47;5114939;28;20092;-74
2020/12/31 00:33:29;;;;;;;11.27;4.25;;;;;;;12.72;100.00;100564.03;5114423;28;20028;-74
2020/12/31 00:36:14;;;;;;;12.52;3.97;;;;;;;12.62;100.00;100562.56;5114818;28;20058;-74
2020/12/31 00:39:01;;;;;;;13.70;4.15;;;;;;;12.67;100.00;100560.69;5115027;28;20032;-74
2020/12/31 00:41:47;;;;;;;17.60;4.10;;;;;;;12.68;100.00;100557.13;5114576;28;20023;-74
2020/12/31 00:44:34;;;;;;;9.95;3.70;;;;;;;12.55;100.00;100550.50;5113446;28;20061;-74
2020/12/31 00:47:19;;;;;;;14.15;3.80;;;;;;;12.52;100.00;100547.09;5114713;28;20067;-74
2020/12/31 00:50:05;;;;;;;11.18;4.25;;;;;;;12.65;100.00;100541.44;5114041;28;20027;-74
2020/12/31 00:52:51;;;;;;;10.82;3.97;;;;;;;12.48;100.00;100548.06;5114464;28;20084;-75
2020/12/31 00:55:37;;;;;;;11.20;3.67;;;;;;;12.22;100.00;100543.53;5114502;28;20114;-75
2020/12/31 00:58:23;;;;;;;16.23;4.32;;;;;;;12.37;100.00;100544.88;5114230;28;20020;-74
2020/12/31 01:01:09;;;;;;;13.60;4.00;;;;;;;12.42;100.00;100543.00;5114370;28;20038;-74
2020/12/31 01:03:54;;;;;;;11.40;3.83;;;;;;;12.63;100.00;100535.38;5114228;28;20023;-73
2020/12/31 01:06:40;;;;;;;10.55;3.85;;;;;;;12.26;100.00;100539.91;5114224;28;20109;-75
2020/12/31 01:09:26;;;;;;;11.82;3.90;;;;;;;12.53;100.00;100551.44;5114431;28;20028;-74
2020/12/31 01:12:11;;;;;;;14.68;3.63;;;;;;;12.22;100.00;100540.06;5113934;28;20030;-77
2020/12/31 01:14:57;;;;;;;10.90;3.70;;;;;;;12.27;100.00;100536.41;5114146;28;20046;-73
2020/12/31 01:17:43;;;;;;;12.65;3.85;;;;;;;12.29;100.00;100538.97;5114282;28;20019;-74
2020/12/31 01:20:29;;;;;;;12.77;3.72;;;;;;;12.34;100.00;100537.09;5113649;28;20042;-74
2020/12/31 01:23:15;;;;;;;9.35;3.38;;;;;;;12.14;100.00;100532.38;5114704;28;20050;-73
2020/12/31 01:26:00;;;;;;;8.80;3.20;;;;;;;12.12;100.00;100538.56;5114770;28;20023;-74
2020/12/31 01:28:46;;;;;;;9.55;3.30;;;;;;;11.94;100.00;100529.41;5114326;28;20088;-74
2020/12/31 01:31:32;;;;;;;14.02;3.60;;;;;;;12.20;100.00;100532.22;5114144;28;20016;-74
2020/12/31 01:34:18;;;;;;;10.52;3.45;;;;;;;12.41;100.00;100534.25;5114180;28;20032;-73
2020/12/31 01:37:04;;;;;;;12.75;3.45;;;;;;;12.62;100.00;100531.00;5114184;28;20038;-73
2020/12/31 01:39:50;;;;;;;14.65;3.80;;;;;;;12.53;100.00;100531.28;5113844;28;20027;-74
2020/12/31 01:42:39;;;;;;;12.68;3.60;;;;;;;12.47;100.00;100530.59;5114121;28;20112;-74
2020/12/31 01:45:24;;;;;;;9.75;3.80;;;;;;;12.57;100.00;100522.41;5113597;28;20110;-74
2020/12/31 01:48:10;;;;;;;16.13;3.75;;;;;;;12.76;100.00;100520.97;5113759;28;20027;-74
2020/12/31 01:50:56;;;;;;;11.48;3.47;;;;;;;12.72;100.00;100518.47;5113540;28;20024;-74
2020/12/31 01:53:42;;;;;;;15.88;3.55;;;;;;;12.24;100.00;100514.59;5113588;28;20028;-75
2020/12/31 01:56:30;;;;;;;10.85;3.47;;;;;;;12.42;100.00;100504.44;5113317;28;20031;-74
2020/12/31 01:59:16;;;;;;;16.40;3.53;;;;;;;12.31;100.00;100498.66;5113805;28;20461;-73
2020/12/31 02:02:02;;;;;;;15.90;3.40;;;;;;;12.47;100.00;100493.81;5113263;28;20065;-74
2020/12/31 02:04:49;;;;;;;13.50;2.97;;;;;;;12.58;100.00;100489.13;5113821;28;20403;-74
2020/12/31 02:07:36;;;;;;;11.70;3.33;;;;;;;12.75;100.00;100486.84;5113339;28;20031;-74
2020/12/31 02:10:22;;;;;;;16.88;3.40;;;;;;;12.70;100.00;100476.44;5113735;28;20115;-74
2020/12/31 02:13:07;;;;;;;14.57;3.00;;;;;;;12.90;100.00;100470.63;5113072;28;20026;-74
2020/12/31 02:15:53;;;;;;;10.13;2.70;;;;;;;13.01;100.00;100474.66;5113552;28;20475;-74
2020/12/31 02:19:12;;;;;;;13.15;2.88;;;;;;;12.96;100.00;100470.41;5113715;28;20055;-74
2020/12/31 02:21:58;;;;;;;14.75;3.63;;;;;;;13.10;100.00;100473.53;5112954;28;20078;-74
2020/12/31 02:24:44;;;;;;;13.77;3.08;;;;;;;13.18;100.00;100477.59;5116647;28;20444;-74
2020/12/31 02:27:30;;;;;;;16.75;3.25;;;;;;;13.28;100.00;100471.16;5117463;28;20027;-73
2020/12/31 02:30:15;;;;;;;9.68;3.15;;;;;;;13.18;100.00;100471.50;5117309;28;20035;-73
2020/12/31 02:33:01;;;;;;;14.75;3.33;;;;;;;13.15;100.00;100466.34;5116655;28;20051;-74
2020/12/31 02:35:47;;;;;;;15.45;3.20;;;;;;;13.32;100.00;100482.44;5117356;28;20031;-74
2020/12/31 02:38:32;;;;;;;13.90;3.10;;;;;;;12.91;100.00;100473.16;5116402;28;20108;-73
2020/12/31 02:41:19;;;;;;;16.50;3.33;;;;;;;12.95;100.00;100474.78;5117126;28;20055;-74
2020/12/31 02:44:05;;;;;;;15.52;3.55;;;;;;;12.94;100.00;100467.81;5116415;28;20365;-74
2020/12/31 02:46:51;;;;;;;15.40;3.10;;;;;;;13.12;100.00;100467.28;5117148;28;20031;-74
2020/12/31 02:49:37;;;;;;;13.73;3.30;;;;;;;13.13;100.00;100473.41;5117065;28;20038;-73
2020/12/31 02:52:22;;;;;;;16.85;3.70;;;;;;;13.09;100.00;100470.00;5116469;28;20054;-74
2020/12/31 02:55:08;;;;;;;12.85;3.40;;;;;;;13.03;100.00;100466.72;5116431;28;20341;-74
2020/12/31 02:57:54;;;;;;;11.68;3.35;;;;;;;13.18;100.00;100467.09;5116689;28;20380;-74
2020/12/31 03:00:39;;;;;;;15.13;3.78;;;;;;;13.10;100.00;100461.22;5116094;28;20023;-73
2020/12/31 03:03:25;;;;;;;19.40;3.45;;;;;;;13.12;100.00;100459.41;5116026;28;20051;-74
2020/12/31 03:06:11;;;;;;;15.80;4.03;;;;;;;13.11;100.00;100457.66;5116305;28;20024;-74
2020/12/31 03:08:57;;;;;;;16.23;3.63;;;;;;;13.23;100.00;100451.16;5116173;28;20050;-74
2020/12/31 03:11:43;;;;;;;15.45;3.78;;;;;;;13.23;100.00;100448.53;5116026;28;20051;-74
2020/12/31 03:14:28;;;;;;;13.18;3.75;;;;;;;13.04;100.00;100450.91;5115804;28;20364;-74
2020/12/31 03:17:14;;;;;;;11.32;3.95;;;;;;;13.25;100.00;100451.97;5117169;28;20092;-74
2020/12/31 03:20:00;;;;;;;12.90;4.13;;;;;;;13.09;100.00;100459.50;5116484;28;20024;-74
2020/12/31 03:22:46;;;;;;;16.95;4.20;;;;;;;13.21;100.00;100451.22;5115656;28;20203;-74
2020/12/31 03:25:31;;;;;;;14.32;4.28;;;;;;;12.99;100.00;100447.53;5115621;28;20353;-74
2020/12/31 03:28:17;;;;;;;20.25;5.07;;;;;;;13.05;100.00;100444.72;5115948;28;20092;-74
2020/12/31 03:31:03;;;;;;;15.13;4.22;;;;;;;13.16;100.00;100450.50;5115649;28;20024;-74
2020/12/31 03:33:49;;;;;;;12.95;4.30;;;;;;;12.92;100.00;100434.59;5116484;28;20027;-74
2020/12/31 03:36:34;;;;;;;16.83;4.55;;;;;;;13.00;100.00;100433.50;5115386;28;20132;-75
2020/12/31 03:39:20;;;;;;;13.07;4.85;;;;;;;13.05;100.00;100439.47;5115633;28;20023;-74
2020/12/31 03:42:06;;;;;;;15.77;4.45;;;;;;;13.08;100.00;100438.50;5115574;28;20027;-74
2020/12/31 03:44:52;;;;;;;14.95;4.53;;;;;;;13.08;100.00;100447.25;5115350;28;20039;-74
2020/12/31 03:47:38;;;;;;;16.05;4.70;;;;;;;13.33;100.00;100434.16;5115369;28;20476;-74
2020/12/31 03:50:24;;;;;;;15.05;4.50;;;;;;;13.12;100.00;100434.88;5115106;28;20028;-74
2020/12/31 03:53:09;;;;;;;15.45;4.38;;;;;;;13.07;100.00;100429.75;5114995;28;20030;-74
2020/12/31 03:55:55;;;;;;;14.75;4.65;;;;;;;13.28;100.00;100422.94;5115710;28;20477;-73
2020/12/31 03:58:41;;;;;;;11.90;4.35;;;;;;;13.16;100.00;100426.84;5115669;28;20028;-74
2020/12/31 04:01:28;;;;;;;11.90;5.03;;;;;;;13.02;100.00;100421.13;5114956;28;20107;-75
2020/12/31 04:04:14;;;;;;;21.00;4.97;;;;;;;12.98;100.00;100419.53;5115116;28;20110;-73
2020/12/31 04:06:59;;;;;;;17.10;4.88;;;;;;;12.89;100.00;100419.78;5114720;28;20030;-74
2020/12/31 04:09:45;;;;;;;14.93;5.00;;;;;;;13.10;100.00;100416.50;5115056;28;20042;-75
2020/12/31 04:12:31;;;;;;;14.98;4.90;;;;;;;13.28;100.00;100412.41;5115346;28;20031;-74
2020/12/31 04:15:16;;;;;;;16.13;4.78;;;;;;;13.28;100.00;100422.94;5114875;28;20481;-74
2020/12/31 04:18:02;;;;;;;13.70;4.63;;;;;;;13.26;100.00;100414.25;5115406;28;20364;-74
2020/12/31 04:20:48;;;;;;;16.92;4.97;;;;;;;13.14;100.00;100417.28;5115088;28;20100;-74
2020/12/31 04:23:34;;;;;;;15.73;5.35;;;;;;;13.25;100.00;100418.63;5115230;28;20035;-74
2020/12/31 04:26:19;;;;;;;13.27;4.60;;;;;;;13.04;100.00;100421.09;5115046;28;20038;-74
2020/12/31 04:29:05;;;;;;;24.80;5.45;;;;;;;13.25;100.00;100420.41;5115297;28;20106;-74
2020/12/31 04:31:51;;;;;;;13.43;5.05;;;;;;;13.12;100.00;100421.72;5114381;28;20016;-74
2020/12/31 04:34:37;;;;;;;14.07;4.60;;;;;;;13.27;100.00;100422.06;5115063;28;20376;-74
2020/12/31 04:37:22;;;;;;;16.65;5.30;;;;;;;13.11;100.00;100425.25;5114500;28;20038;-74
2020/12/31 04:40:09;;;;;;;19.67;6.32;;;;;;;13.20;100.00;100424.94;5114630;28;20098;-74
2020/12/31 04:42:56;;;;;;;19.63;5.20;;;;;;;13.25;100.00;100417.75;5113835;28;20055;-74
2020/12/31 04:45:42;;;;;;;23.80;5.68;;;;;;;13.17;100.00;100425.03;5114314;28;20027;-74
2020/12/31 04:48:42;;;;;;;20.55;5.68;;;;;;;13.12;100.00;100421.72;5113196;28;20020;-74
2020/12/31 04:51:33;;;;;;;19.67;6.05;;;;;;;13.41;100.00;100417.22;5114013;28;20020;-74
2020/12/31 04:54:19;;;;;;;14.77;5.65;;;;;;;13.51;100.00;100425.66;5114144;28;20042;-74
2020/12/31 04:57:05;;;;;;;16.75;5.25;;;;;;;13.31;100.00;100430.72;5113972;28;20042;-73
2020/12/31 04:59:51;;;;;;;18.25;5.68;;;;;;;13.01;100.00;100429.06;5114196;28;20133;-74
2020/12/31 05:02:37;;;;;;;19.08;5.10;;;;;;;13.32;100.00;100440.34;5113683;28;20072;-73
2020/12/31 05:05:24;;;;;;;13.52;5.03;;;;;;;13.09;100.00;100440.22;5114477;28;20414;-73
2020/12/31 05:08:10;;;;;;;19.63;5.35;;;;;;;13.10;100.00;100440.16;5114374;28;20441;-73
2020/12/31 05:10:58;;;;;;;12.48;4.80;;;;;;;12.95;100.00;100440.59;5114208;28;20035;-73
2020/12/31 05:13:52;;;;;;;14.85;5.93;;;;;;;12.86;100.00;100440.06;5113824;28;20063;-74
2020/12/31 05:16:38;;;;;;;17.17;5.93;;;;;;;12.78;100.00;100435.03;5114380;28;20031;-73
2020/12/31 05:19:25;;;;;;;20.27;6.63;;;;;;;12.80;100.00;100433.22;5114000;28;20168;-74
2020/12/31 05:22:18;;;;;;;16.13;5.88;;;;;;;12.60;100.00;100432.97;5113715;28;20123;-74
2020/12/31 05:25:04;;;;;;;20.92;5.70;;;;;;;12.47;100.00;100436.88;5113848;28;20069;-74
2020/12/31 05:27:49;;;;;;;18.67;5.68;;;;;;;12.63;100.00;100439.91;5114115;28;20132;-73
2020/12/31 05:30:40;;;;;;;15.82;5.30;;;;;;;12.50;100.00;100428.88;5113471;28;20457;-74
2020/12/31 05:33:30;;;;;;;15.20;5.35;;;;;;;12.72;100.00;100435.22;5113473;28;20088;-73
2020/12/31 05:36:22;;;;;;;15.13;5.50;;;;;;;12.79;100.00;100428.88;5113655;28;20031;-73
2020/12/31 05:39:10;;;;;;;22.42;5.20;;;;;;;12.80;100.00;100419.22;5114132;28;20024;-73
2020/12/31 05:41:56;;;;;;;17.60;5.95;;;;;;;12.91;100.00;100428.47;5113517;28;20026;-73
2020/12/31 05:45:01;;;;;;;17.27;6.20;;;;;;;13.20;100.00;100431.09;5113636;28;20019;-74
2020/12/31 05:47:49;;;;;;;18.75;6.25;;;;;;;13.05;100.00;100428.94;5113786;28;20020;-74
2020/12/31 05:50:35;;;;;;;16.50;6.50;;;;;;;12.94;100.00;100423.13;5114545;28;20449;-74
2020/12/31 05:53:24;;;;;;;20.98;6.43;;;;;;;13.14;100.00;100426.00;5113547;28;20023;-73
2020/12/31 05:56:12;;;;;;;16.50;6.07;;;;;;;12.98;100.00;100422.16;5117368;28;20028;-74
2020/12/31 05:59:07;;;;;;;21.05;6.40;;;;;;;13.17;100.00;100411.88;5104007;28;20027;-73
2020/12/31 06:01:56;;;;;;;15.65;5.63;;;;;;;13.03;100.00;100417.59;5117679;28;20111;-74
2020/12/31 06:04:46;;;;;;;19.10;5.93;;;;;;;13.17;100.00;100425.03;5117889;28;20034;-74
2020/12/31 06:07:40;;;;;;;14.25;5.78;;;;;;;13.22;100.00;100431.03;5118526;28;20035;-73
2020/12/31 06:10:28;;;;;;;22.73;6.55;;;;;;;13.20;100.00;100420.56;5117554;28;20106;-74
2020/12/31 06:13:16;;;;;;;16.98;6.22;;;;;;;13.09;100.00;100427.94;5116989;28;20019;-74
2020/12/31 06:16:03;;;;;;;14.60;6.13;;;;;;;13.02;100.00;100431.66;5116935;28;20088;-74
2020/12/31 06:19:00;;;;;;;12.88;5.40;;;;;;;13.22;100.00;100428.41;5115952;28;20035;-73
2020/12/31 06:22:01;;;;;;;14.57;5.53;;;;;;;12.86;100.00;100430.38;5117015;28;20044;-74
2020/12/31 06:24:58;;;;;;;17.33;5.53;;;;;;;12.91;100.00;100427.63;5116708;28;20456;-74
2020/12/31 06:27:46;;;;;;;16.33;5.45;;;;;;;12.82;100.00;100420.03;5117072;28;20042;-74
2020/12/31 06:30:33;;;;;;;16.20;5.97;;;;;;;12.82;100.00;100428.75;5117320;28;20027;-74
2020/12/31 06:33:23;;;;;;;17.20;5.82;;;;;;;12.82;100.00;100423.50;5116553;28;20020;-74
2020/12/31 06:36:09;;;;;;;16.35;6.75;;;;;;;12.56;100.00;100417.31;5116759;28;20028;-73
2020/12/31 06:38:55;;;;;;;15.77;5.90;;;;;;;12.58;100.00;100419.00;5116577;28;20023;-74
2020/12/31 06:41:41;;;;;;;20.58;6.72;;;;;;;12.76;100.00;100413.19;5117029;28;20118;-73
2020/12/31 06:44:31;;;;;;;20.13;6.93;;;;;;;12.98;100.00;100418.69;5116411;28;20524;-74
2020/12/31 06:47:36;;;;;;;19.85;6.60;;;;;;;12.79;100.00;100418.38;5116519;28;20047;-74
2020/12/31 06:50:21;;;;;;;18.73;6.75;;;;;;;12.82;100.00;100418.25;5116431;28;20102;-74
2020/12/31 06:53:26;;;;;;;20.02;6.75;;;;;;;12.86;100.00;100409.34;5116638;28;20051;-73
2020/12/31 06:56:13;;;;;;;13.50;6.40;;;;;;;12.75;100.00;100415.88;5116171;28;20131;-74
2020/12/31 06:58:58;;;;;;;16.23;6.93;;;;;;;13.11;100.00;100412.94;5116486;28;20475;-74
2020/12/31 07:01:44;;;;;;;18.52;6.75;;;;;;;13.19;100.00;100413.56;5116209;28;20453;-74
2020/12/31 07:04:35;;;;;;;22.48;7.05;;;;;;;13.00;100.00;100403.69;5116323;28;20405;-74
2020/12/31 07:07:20;;;;;;;16.92;6.22;;;;;;;13.17;100.00;100402.25;5116197;28;20023;-73
2020/12/31 07:10:06;;;;;;;19.65;6.40;;;;;;;13.58;100.00;100396.44;5116215;28;20024;-75
2020/12/31 07:12:52;;;;;;;19.02;6.80;;;;;;;13.59;100.00;100411.31;5115500;28;20016;-74
2020/12/31 07:15:38;;;;;;;14.15;6.80;;;;;;;13.38;100.00;100404.16;5116111;28;20037;-74
2020/12/31 07:18:26;;;;;;;18.85;6.43;;;;;;;13.47;100.00;100408.25;5116490;28;20027;-73
2020/12/31 07:21:14;;;;;;;19.30;6.78;;;;;;;13.77;100.00;100405.41;5115868;28;20037;-74
2020/12/31 07:24:20;;;;;;;16.58;7.03;;;;;;;14.09;100.00;100404.25;5115878;28;20384;-73
2020/12/31 07:27:05;;;;;;;19.40;6.38;;;;;;;14.21;100.00;100409.97;5115743;28;20373;-74
2020/12/31 07:29:57;;;;;;;14.52;6.50;;;;;;;14.17;100.00;100410.97;5115679;28;20035;-74
2020/12/31 07:32:53;;;;;;;17.75;6.03;;;;;;;14.28;100.00;100411.44;5115831;28;20016;-74
2020/12/31 07:35:43;;;;;;;21.65;6.50;;;;;;;14.11;100.00;100402.44;5115789;28;20106;-76
2020/12/31 07:38:29;;;;;;;13.07;6.13;;;;;;;14.34;100.00;100394.53;5115318;28;20030;-73
2020/12/31 07:41:17;;;;;;;16.13;6.63;;;;;;;14.34;100.00;100400.69;5115326;28;20460;-74
2020/12/31 07:44:03;;;;;;;16.30;7.28;;;;;;;14.41;100.00;100399.53;5115934;28;20048;-73
2020/12/31 07:46:49;;;;;;;28.05;7.47;;;;;;;14.66;100.00;100397.69;5115897;28;20057;-74
2020/12/31 07:49:43;;;;;;;16.27;7.05;;;;;;;15.11;100.00;100404.69;5115192;28;20028;-75
2020/12/31 07:52:28;;;;;;;17.65;7.35;;;;;;;15.77;100.00;100396.56;5115441;28;20019;-75
2020/12/31 07:55:15;;;;;;;16.80;7.10;;;;;;;16.19;100.00;100402.63;5115290;28;20475;-75
2020/12/31 07:58:03;;;;;;;16.27;7.43;;;;;;;15.68;100.00;100403.13;5114884;28;20460;-74
2020/12/31 08:00:58;;;;;;;14.20;6.22;;;;;;;16.13;100.00;100402.88;5115043;28;20023;-73
2020/12/31 08:03:44;;;;;;;18.27;6.95;;;;;;;17.03;100.00;100407.41;5115046;28;20490;-74
2020/12/31 08:06:30;;;;;;;22.63;6.90;;;;;;;16.57;100.00;100402.59;5114660;28;20387;-72
2020/12/31 08:09:21;;;;;;;16.80;6.72;;;;;;;17.20;100.00;100409.25;5115004;28;20027;-73
2020/12/31 08:12:09;;;;;;;14.77;7.40;;;;;;;17.33;100.00;100402.38;5114610;28;20484;-72
2020/12/31 08:14:55;;;;;;;18.02;7.40;;;;;;;16.63;100.00;100399.66;5114988;28;20038;-73
2020/12/31 08:17:48;;;;;;;13.55;6.18;;;;;;;17.03;100.00;100401.22;5115114;28;20019;-73
2020/12/31 08:20:37;;;;;;;15.68;6.97;;;;;;;17.29;100.00;100399.06;5115230;28;20065;-72
2020/12/31 08:23:29;;;;;;;19.48;8.00;;;;;;;18.05;100.00;100393.34;5116172;28;20027;-73
2020/12/31 08:26:15;;;;;;;29.13;8.02;;;;;;;18.12;100.00;100398.22;5117030;28;20024;-74
2020/12/31 08:29:01;;;;;;;15.73;6.75;;;;;;;17.35;100.00;100387.25;5115581;28;20365;-73
2020/12/31 08:31:52;;;;;;;17.08;7.22;;;;;;;17.99;100.00;100381.28;5114703;28;20023;-75
2020/12/31 08:34:38;;;;;;;19.65;7.78;;;;;;;17.76;100.00;100381.59;5114864;28;20027;-73
2020/12/31 08:37:26;;;;;;;19.17;7.97;;;;;;;17.74;100.00;100372.91;5114705;28;20102;-73
2020/12/31 08:40:19;;;;;;;18.23;7.55;;;;;;;18.37;100.00;100374.78;5113834;28;20084;-74
2020/12/31 08:43:08;;;;;;;14.73;6.50;;;;;;;18.16;100.00;100361.78;5114669;28;20104;-73
2020/12/31 08:45:57;;;;;;;16.45;6.70;;;;;;;18.55;100.00;100365.81;5115251;28;20065;-75
2020/12/31 08:48:43;;;;;;;15.57;6.80;;;;;;;18.17;100.00;100367.00;5115191;28;20026;-74
2020/12/31 08:51:29;;;;;;;12.98;5.55;;;;;;;18.01;100.00;100363.47;5115515;28;20440;-74
2020/12/31 08:54:15;;;;;;;14.93;6.63;;;;;;;18.01;100.00;100360.81;5114385;28;20107;-73
2020/12/31 08:57:16;;;;;;;16.45;6.97;;;;;;;18.55;100.00;100354.34;5114033;28;20054;-73
2020/12/31 09:00:04;;;;;;;15.43;7.03;;;;;;;18.12;100.00;100353.16;5114447;28;20023;-77
2020/12/31 09:02:53;;;;;;;14.43;6.50;;;;;;;18.50;100.00;100344.00;5114103;28;20019;-71
2020/12/31 09:05:38;;;;;;;12.48;6.05;;;;;;;18.22;100.00;100345.56;5114023;28;20369;-72
2020/12/31 09:08:31;;;;;;;11.88;6.00;;;;;;;18.74;100.00;100337.28;5113955;28;20396;-72
2020/12/31 09:11:25;;;;;;;10.85;6.80;;;;;;;18.69;100.00;100338.53;5114073;28;20103;-72
2020/12/31 09:14:10;;;;;;;22.80;12.40;;;;;;;19.23;100.00;100337.97;5115034;28;20104;-73
2020/12/31 09:16:56;;;;;;;30.33;14.57;;;;;;;19.97;98.33;100341.47;5114341;28;20020;-73
2020/12/31 09:19:51;;;;;;;19.23;10.70;;;;;;;19.38;100.00;100338.91;5114091;28;20031;-73
2020/12/31 09:22:37;;;;;;;11.57;5.85;;;;;;;18.83;100.00;100331.47;5114285;28;20040;-73
2020/12/31 09:25:23;;;;;;;12.70;6.28;;;;;;;18.69;100.00;100335.88;5113640;28;20361;-73
2020/12/31 09:28:08;;;;;;;15.23;6.65;;;;;;;18.42;100.00;100325.00;5115299;28;20428;-74
2020/12/31 09:30:55;;;;;;;10.43;5.97;;;;;;;18.71;100.00;100328.66;5117881;28;20019;-73
2020/12/31 09:33:41;;;;;;;11.82;6.65;;;;;;;18.64;100.00;100317.53;5118151;28;20429;-73
2020/12/31 09:36:26;;;;;;;18.15;6.70;;;;;;;18.59;100.00;100308.13;5117704;28;20027;-73
2020/12/31 09:39:12;;;;;;;14.30;6.20;;;;;;;18.58;100.00;100309.06;5118274;28;20031;-73
2020/12/31 09:41:58;;;;;;;13.20;5.70;;;;;;;18.65;100.00;100292.69;5118140;28;20016;-72
2020/12/31 09:44:44;;;;;;;13.88;5.47;;;;;;;18.76;100.00;100303.56;5117991;28;20073;-73
2020/12/31 09:47:29;;;;;;;10.10;4.85;;;;;;;18.30;100.00;100295.63;5118464;28;20337;-73
2020/12/31 09:50:15;;;;;;;15.25;5.00;;;;;;;18.44;100.00;100288.63;5118233;28;20065;-72
2020/12/31 09:53:02;;;;;;;9.60;5.30;;;;;;;18.32;100.00;100291.94;5117547;28;20031;-72
2020/12/31 09:55:48;;;;;;;9.23;5.55;;;;;;;18.30;100.00;100280.56;5117384;28;20504;-72
2020/12/31 09:58:34;;;;;;;11.48;4.90;;;;;;;18.53;100.00;100272.19;5116922;28;20038;-73
2020/12/31 10:01:22;;;;;;;17.05;4.85;;;;;;;18.46;100.00;100294.72;5117586;28;20139;-73
2020/12/31 10:04:07;;;;;;;14.00;4.68;;;;;;;18.14;100.00;100273.53;5117337;28;20116;-72
2020/12/31 10:06:53;;;;;;;13.25;4.63;;;;;;;18.26;100.00;100283.47;5117132;28;20356;-73
2020/12/31 10:09:39;;;;;;;13.13;4.68;;;;;;;18.29;100.00;100285.94;5117281;28;20465;-72
2020/12/31 10:12:25;;;;;;;12.38;4.90;;;;;;;18.60;100.00;100291.25;5117676;28;20110;-74
2020/12/31 10:15:10;;;;;;;19.70;11.13;;;;;;;18.76;100.00;100290.31;5117605;28;20030;-73
2020/12/31 10:17:56;;;;;;;23.95;8.50;;;;;;;18.69;100.00;100274.81;5117502;28;20081;-73
2020/12/31 10:20:42;;;;;;;14.90;5.57;;;;;;;18.79;100.00;100274.22;5116746;28;20035;-73
2020/12/31 10:23:28;;;;;;;12.07;4.75;;;;;;;18.36;100.00;100274.94;5117176;28;20065;-73
2020/12/31 10:26:19;;;;;;;8.80;4.47;;;;;;;18.32;100.00;100262.75;5116574;28;20118;-73
2020/12/31 10:29:05;;;;;;;11.05;4.40;;;;;;;18.63;100.00;100270.72;5116968;28;20096;-73
2020/12/31 10:31:55;;;;;;;9.90;4.70;;;;;;;18.60;100.00;100273.53;5117374;28;20024;-73
2020/12/31 10:34:40;;;;;;;8.38;4.65;;;;;;;18.74;100.00;100280.72;5117352;28;20024;-73
2020/12/31 10:37:26;;;;;;;14.23;5.28;;;;;;;18.89;100.00;100271.88;5116752;28;20050;-73
2020/12/31 10:40:12;;;;;;;9.48;4.28;;;;;;;18.63;100.00;100278.69;5116110;28;20034;-72
2020/12/31 10:42:58;;;;;;;19.10;4.90;;;;;;;18.52;100.00;100283.75;5116352;28;20159;-73
2020/12/31 10:45:44;;;;;;;13.38;5.20;;;;;;;18.88;100.00;100264.84;5116659;28;20031;-73
2020/12/31 10:48:29;;;;;;;10.70;4.47;;;;;;;18.83;100.00;100256.28;5116143;28;20027;-73
2020/12/31 10:51:16;;;;;;;13.70;4.85;;;;;;;18.88;100.00;100254.22;5116783;28;20090;-73
2020/12/31 10:54:02;;;;;;;11.95;4.80;;;;;;;18.60;100.00;100254.09;5116580;28;20365;-74
2020/12/31 10:56:48;;;;;;;16.85;5.60;;;;;;;18.62;100.00;100242.47;5116649;28;20035;-73
2020/12/31 10:59:34;;;;;;;13.13;6.68;;;;;;;18.24;100.00;100250.84;5116357;28;20038;-71
2020/12/31 11:02:20;;;;;;;12.13;4.72;;;;;;;18.18;100.00;100244.13;5115760;28;20023;-73
2020/12/31 11:05:07;;;;;;;11.55;4.97;;;;;;;18.47;100.00;100237.19;5116438;28;20031;-73
2020/12/31 11:07:53;;;;;;;9.82;4.97;;;;;;;18.84;100.00;100234.97;5115809;28;20020;-72
2020/12/31 11:10:39;;;;;;;10.75;4.70;;;;;;;19.06;100.00;100237.22;5116712;28;20034;-73
2020/12/31 11:13:25;;;;;;;11.40;4.60;;;;;;;18.88;100.00;100235.63;5115991;28;20016;-73
2020/12/31 11:16:12;;;;;;;11.30;4.53;;;;;;;19.18;99.26;100223.19;5115933;28;20111;-72
2020/12/31 11:18:58;;;;;;;9.88;5.30;;;;;;;19.18;98.02;100234.66;5115679;28;20114;-73
2020/12/31 11:21:44;;;;;;;10.57;4.50;;;;;;;18.90;100.00;100228.44;5115606;28;20468;-74
2020/12/31 11:24:29;;;;;;;11.65;4.82;;;;;;;18.71;100.00;100230.47;5115796;28;20043;-73
2020/12/31 11:27:15;;;;;;;13.32;5.10;;;;;;;18.76;100.00;100221.28;5115531;28;20106;-72
2020/12/31 11:30:01;;;;;;;13.80;4.70;;;;;;;18.59;100.00;100217.91;5115957;28;20030;-72
2020/12/31 11:32:47;;;;;;;10.38;5.03;;;;;;;18.66;100.00;100209.50;5115285;28;20055;-73
2020/12/31 11:35:32;;;;;;;9.57;5.07;;;;;;;18.50;100.00;100208.72;5115680;28;20453;-73
2020/12/31 11:38:18;;;;;;;10.98;5.00;;;;;;;18.41;100.00;100213.69;5115837;28;20038;-73
2020/12/31 11:41:05;;;;;;;11.43;4.50;;;;;;;18.46;100.00;100211.59;5116295;28;20138;-73
2020/12/31 11:43:51;;;;;;;11.32;4.78;;;;;;;18.29;100.00;100209.88;5114433;28;20510;-73
2020/12/31 11:46:37;;;;;;;13.10;5.43;;;;;;;18.51;100.00;100209.53;5115516;28;20027;-74
2020/12/31 11:49:23;;;;;;;9.43;4.43;;;;;;;18.52;100.00;100205.94;5115123;28;20039;-73
2020/12/31 11:52:08;;;;;;;10.55;5.47;;;;;;;18.66;100.00;100198.88;5113903;28;20027;-73
2020/12/31 11:54:54;;;;;;;13.68;4.78;;;;;;;18.35;100.00;100201.63;5115539;28;20031;-73
2020/12/31 11:57:40;;;;;;;10.32;4.55;;;;;;;18.29;100.00;100201.09;5115085;28;20085;-74
2020/12/31 12:00:26;;;;;;;11.48;4.63;;;;;;;18.32;100.00;100203.53;5114775;28;20042;-73
2020/12/31 12:03:11;;;;;;;12.88;5.28;;;;;;;18.53;100.00;100210.31;5114732;28;20047;-73
2020/12/31 12:05:57;;;;;;;12.38;5.20;;;;;;;18.48;100.00;100209.72;5114718;28;20059;-73
2020/12/31 12:08:43;;;;;;;12.05;5.00;;;;;;;18.88;100.00;100204.66;5115285;28;20114;-73
2020/12/31 12:11:30;;;;;;;13.63;4.90;;;;;;;18.63;100.00;100206.19;5115323;28;20078;-72
2020/12/31 12:14:16;;;;;;;8.43;5.00;;;;;;;18.85;100.00;100203.97;5114493;28;20036;-73
2020/12/31 12:17:02;;;;;;;9.43;5.57;;;;;;;18.97;100.00;100208.56;5114769;28;20023;-75
2020/12/31 12:19:48;;;;;;;10.95;5.32;;;;;;;19.06;98.38;100211.50;5114293;28;20034;-73
2020/12/31 12:22:34;;;;;;;10.52;5.10;;;;;;;18.54;100.00;100206.72;5114522;28;20108;-73
2020/12/31 12:25:19;;;;;;;11.98;5.00;;;;;;;18.57;100.00;100201.25;5115112;28;20038;-73
2020/12/31 12:28:05;;;;;;;12.85;5.60;;;;;;;18.13;100.00;100209.03;5114519;28;20019;-73
2020/12/31 12:30:51;;;;;;;16.48;5.50;;;;;;;18.13;100.00;100214.34;5114659;28;20024;-73
2020/12/31 12:33:37;;;;;;;18.55;12.50;;;;;;;18.61;100.00;100205.44;5114113;28;20510;-72
2020/12/31 12:36:22;;;;;;;35.58;24.35;;;;;;;18.60;100.00;100209.88;5115035;28;20039;-73
2020/12/31 12:39:08;;;;;;;17.67;8.32;;;;;;;19.03;100.00;100214.38;5114654;28;20445;-73